sensor_id;sensor_type;location;lat;lon;timestamp;temperature;humidity
18682;DHT22;9471;51.168;4.154;2022-08-25T00:01:08;25.80;99.90
18682;DHT22;9471;51.168;4.154;2022-08-25T00:03:35;25.80;99.90
18682;DHT22;9471;51.168;4.154;2022-08-25T00:06:04;25.80;99.90
18682;DHT22;9471;51.168;4.154;2022-08-25T00:08:31;25.90;99.90
18682;DHT22;9471;51.168;4.154;2022-08-25T00:10:59;25.80;99.90
18682;DHT22;9471;51.168;4.154;2022-08-25T00:13:28;25.80;99.90
18682;DHT22;9471;51.168;4.154;2022-08-25T00:15:55;25.80;99.90
18682;DHT22;9471;51.168;4.154;2022-08-25T00:18:22;25.80;99.90
18682;DHT22;9471;51.168;4.154;2022-08-25T00:20:49;25.80;99.90
18682;DHT22;9471;51.168;4.154;2022-08-25T00:23:19;25.80;99.90
18682;DHT22;9471;51.168;4.154;2022-08-25T00:25:46;25.80;99.90
18682;DHT22;9471;51.168;4.154;2022-08-25T00:28:13;25.80;99.90
18682;DHT22;9471;51.168;4.154;2022-08-25T00:30:43;25.80;99.90
18682;DHT22;9471;51.168;4.154;2022-08-25T00:33:10;25.70;99.90
18682;DHT22;9471;51.168;4.154;2022-08-25T00:35:37;25.70;99.90
18682;DHT22;9471;51.168;4.154;2022-08-25T00:38:04;25.60;99.90
18682;DHT22;9471;51.168;4.154;2022-08-25T00:40:32;25.50;99.90
18682;DHT22;9471;51.168;4.154;2022-08-25T00:42:58;25.50;99.90
18682;DHT22;9471;51.168;4.154;2022-08-25T00:45:26;25.50;99.90
18682;DHT22;9471;51.168;4.154;2022-08-25T00:47:54;25.40;99.90
18682;DHT22;9471;51.168;4.154;2022-08-25T00:50:22;25.40;99.90
18682;DHT22;9471;51.168;4.154;2022-08-25T00:52:51;25.40;99.90
18682;DHT22;9471;51.168;4.154;2022-08-25T00:55:22;25.40;99.90
18682;DHT22;9471;51.168;4.154;2022-08-25T00:57:53;25.30;99.90
18682;DHT22;9471;51.168;4.154;2022-08-25T01:00:25;25.30;99.90
18682;DHT22;9471;51.168;4.154;2022-08-25T01:02:52;25.20;99.90
18682;DHT22;9471;51.168;4.154;2022-08-25T01:05:23;25.20;99.90
18682;DHT22;9471;51.168;4.154;2022-08-25T01:07:50;25.20;99.90
18682;DHT22;9471;51.168;4.154;2022-08-25T01:10:19;25.10;99.90
18682;DHT22;9471;51.168;4.154;2022-08-25T01:12:48;25.10;99.90
18682;DHT22;9471;51.168;4.154;2022-08-25T01:15:16;25.10;99.90
18682;DHT22;9471;51.168;4.154;2022-08-25T01:17:48;25.00;99.90
18682;DHT22;9471;51.168;4.154;2022-08-25T01:20:16;25.00;99.90
18682;DHT22;9471;51.168;4.154;2022-08-25T01:22:46;25.00;99.90
18682;DHT22;9471;51.168;4.154;2022-08-25T01:25:22;25.00;99.90
18682;DHT22;9471;51.168;4.154;2022-08-25T01:27:52;25.00;99.90
18682;DHT22;9471;51.168;4.154;2022-08-25T01:30:20;24.90;99.90
18682;DHT22;9471;51.168;4.154;2022-08-25T01:32:47;24.90;99.90
18682;DHT22;9471;51.168;4.154;2022-08-25T01:35:14;24.90;99.90
18682;DHT22;9471;51.168;4.154;2022-08-25T01:37:45;24.90;99.90
18682;DHT22;9471;51.168;4.154;2022-08-25T01:40:12;24.80;99.90
18682;DHT22;9471;51.168;4.154;2022-08-25T01:42:46;24.90;99.90
18682;DHT22;9471;51.168;4.154;2022-08-25T01:45:18;24.90;99.90
18682;DHT22;9471;51.168;4.154;2022-08-25T01:47:45;24.80;99.90
18682;DHT22;9471;51.168;4.154;2022-08-25T01:50:12;24.80;99.90
18682;DHT22;9471;51.168;4.154;2022-08-25T01:52:50;24.70;99.90
18682;DHT22;9471;51.168;4.154;2022-08-25T01:55:20;24.70;99.90
18682;DHT22;9471;51.168;4.154;2022-08-25T01:57:46;24.70;99.90
18682;DHT22;9471;51.168;4.154;2022-08-25T02:00:15;24.70;99.90
18682;DHT22;9471;51.168;4.154;2022-08-25T02:02:43;24.70;99.90
18682;DHT22;9471;51.168;4.154;2022-08-25T02:05:12;24.70;99.90
18682;DHT22;9471;51.168;4.154;2022-08-25T02:07:41;24.70;99.90
18682;DHT22;9471;51.168;4.154;2022-08-25T02:10:11;24.60;99.90
18682;DHT22;9471;51.168;4.154;2022-08-25T02:12:38;24.50;99.90
18682;DHT22;9471;51.168;4.154;2022-08-25T02:15:07;24.50;99.90
18682;DHT22;9471;51.168;4.154;2022-08-25T02:17:35;24.40;99.90
18682;DHT22;9471;51.168;4.154;2022-08-25T02:20:03;24.40;99.90
18682;DHT22;9471;51.168;4.154;2022-08-25T02:22:30;24.40;99.90
18682;DHT22;9471;51.168;4.154;2022-08-25T02:24:58;24.40;99.90
18682;DHT22;9471;51.168;4.154;2022-08-25T02:27:26;24.40;99.90
18682;DHT22;9471;51.168;4.154;2022-08-25T02:29:54;24.30;99.90
18682;DHT22;9471;51.168;4.154;2022-08-25T02:32:20;24.30;99.90
18682;DHT22;9471;51.168;4.154;2022-08-25T02:34:47;24.30;99.90
18682;DHT22;9471;51.168;4.154;2022-08-25T02:37:14;24.20;99.90
18682;DHT22;9471;51.168;4.154;2022-08-25T02:39:41;24.20;99.90
18682;DHT22;9471;51.168;4.154;2022-08-25T02:42:08;24.20;99.90
18682;DHT22;9471;51.168;4.154;2022-08-25T02:44:37;24.20;99.90
18682;DHT22;9471;51.168;4.154;2022-08-25T02:47:04;24.20;99.90
18682;DHT22;9471;51.168;4.154;2022-08-25T02:49:31;24.20;99.90
18682;DHT22;9471;51.168;4.154;2022-08-25T02:51:58;24.10;99.90
18682;DHT22;9471;51.168;4.154;2022-08-25T02:54:25;24.10;99.90
18682;DHT22;9471;51.168;4.154;2022-08-25T02:56:53;24.20;99.90
18682;DHT22;9471;51.168;4.154;2022-08-25T02:59:20;24.10;99.90
18682;DHT22;9471;51.168;4.154;2022-08-25T03:01:48;24.10;99.90
18682;DHT22;9471;51.168;4.154;2022-08-25T03:04:16;24.00;99.90
18682;DHT22;9471;51.168;4.154;2022-08-25T03:06:43;23.90;99.90
18682;DHT22;9471;51.168;4.154;2022-08-25T03:09:10;23.90;99.90
18682;DHT22;9471;51.168;4.154;2022-08-25T03:11:37;23.80;99.90
18682;DHT22;9471;51.168;4.154;2022-08-25T03:14:04;23.80;99.90
18682;DHT22;9471;51.168;4.154;2022-08-25T03:16:31;23.80;99.90
18682;DHT22;9471;51.168;4.154;2022-08-25T03:19:00;23.80;99.90
18682;DHT22;9471;51.168;4.154;2022-08-25T03:21:28;23.70;99.90
18682;DHT22;9471;51.168;4.154;2022-08-25T03:23:56;23.70;99.90
18682;DHT22;9471;51.168;4.154;2022-08-25T03:26:24;23.50;99.90
18682;DHT22;9471;51.168;4.154;2022-08-25T03:29:08;23.40;99.90
18682;DHT22;9471;51.168;4.154;2022-08-25T03:31:36;23.30;99.90
18682;DHT22;9471;51.168;4.154;2022-08-25T03:34:04;23.30;99.90
18682;DHT22;9471;51.168;4.154;2022-08-25T03:36:31;23.30;99.90
18682;DHT22;9471;51.168;4.154;2022-08-25T03:38:58;23.30;99.90
18682;DHT22;9471;51.168;4.154;2022-08-25T03:41:27;23.30;99.90
18682;DHT22;9471;51.168;4.154;2022-08-25T03:43:55;23.20;99.90
18682;DHT22;9471;51.168;4.154;2022-08-25T03:46:25;23.20;99.90
18682;DHT22;9471;51.168;4.154;2022-08-25T03:48:52;23.20;99.90
18682;DHT22;9471;51.168;4.154;2022-08-25T03:51:22;23.20;99.90
18682;DHT22;9471;51.168;4.154;2022-08-25T03:53:50;23.20;99.90
18682;DHT22;9471;51.168;4.154;2022-08-25T03:56:18;23.10;99.90
18682;DHT22;9471;51.168;4.154;2022-08-25T03:58:45;23.00;99.90
18682;DHT22;9471;51.168;4.154;2022-08-25T04:01:13;23.00;99.90
18682;DHT22;9471;51.168;4.154;2022-08-25T04:03:40;22.90;99.90
18682;DHT22;9471;51.168;4.154;2022-08-25T04:06:10;22.90;99.90
18682;DHT22;9471;51.168;4.154;2022-08-25T04:08:38;22.90;99.90
18682;DHT22;9471;51.168;4.154;2022-08-25T04:11:07;22.90;99.90
18682;DHT22;9471;51.168;4.154;2022-08-25T04:13:34;22.90;99.90
18682;DHT22;9471;51.168;4.154;2022-08-25T04:16:02;22.80;99.90
18682;DHT22;9471;51.168;4.154;2022-08-25T04:18:29;22.80;99.90
18682;DHT22;9471;51.168;4.154;2022-08-25T04:21:04;22.80;99.90
18682;DHT22;9471;51.168;4.154;2022-08-25T04:23:33;22.70;99.90
18682;DHT22;9471;51.168;4.154;2022-08-25T04:26:07;22.70;99.90
18682;DHT22;9471;51.168;4.154;2022-08-25T04:28:35;22.60;99.90
18682;DHT22;9471;51.168;4.154;2022-08-25T04:31:05;22.60;99.90
18682;DHT22;9471;51.168;4.154;2022-08-25T04:33:32;22.50;99.90
18682;DHT22;9471;51.168;4.154;2022-08-25T04:35:59;22.40;99.90
18682;DHT22;9471;51.168;4.154;2022-08-25T04:38:26;22.40;99.90
18682;DHT22;9471;51.168;4.154;2022-08-25T04:40:56;22.40;99.90
18682;DHT22;9471;51.168;4.154;2022-08-25T04:43:25;22.50;99.90
18682;DHT22;9471;51.168;4.154;2022-08-25T04:45:52;22.40;99.90
18682;DHT22;9471;51.168;4.154;2022-08-25T04:48:20;22.40;99.90
18682;DHT22;9471;51.168;4.154;2022-08-25T04:50:48;22.20;99.90
18682;DHT22;9471;51.168;4.154;2022-08-25T04:53:15;22.30;99.90
18682;DHT22;9471;51.168;4.154;2022-08-25T04:55:44;22.10;99.90
18682;DHT22;9471;51.168;4.154;2022-08-25T04:58:12;22.20;99.90
18682;DHT22;9471;51.168;4.154;2022-08-25T05:00:41;22.10;99.90
18682;DHT22;9471;51.168;4.154;2022-08-25T05:03:08;22.10;99.90
18682;DHT22;9471;51.168;4.154;2022-08-25T05:05:36;22.20;99.90
18682;DHT22;9471;51.168;4.154;2022-08-25T05:08:04;22.30;99.90
18682;DHT22;9471;51.168;4.154;2022-08-25T05:10:32;22.30;99.90
18682;DHT22;9471;51.168;4.154;2022-08-25T05:12:59;22.40;99.90
18682;DHT22;9471;51.168;4.154;2022-08-25T05:15:26;22.40;99.90
18682;DHT22;9471;51.168;4.154;2022-08-25T05:18:11;22.40;99.90
18682;DHT22;9471;51.168;4.154;2022-08-25T05:20:38;22.50;99.90
18682;DHT22;9471;51.168;4.154;2022-08-25T05:23:05;22.50;99.90
18682;DHT22;9471;51.168;4.154;2022-08-25T05:25:32;22.50;99.90
18682;DHT22;9471;51.168;4.154;2022-08-25T05:27:59;22.60;99.90
18682;DHT22;9471;51.168;4.154;2022-08-25T05:30:29;22.60;99.90
18682;DHT22;9471;51.168;4.154;2022-08-25T05:32:56;22.70;99.90
18682;DHT22;9471;51.168;4.154;2022-08-25T05:35:25;22.70;99.90
18682;DHT22;9471;51.168;4.154;2022-08-25T05:37:52;22.70;99.90
18682;DHT22;9471;51.168;4.154;2022-08-25T05:40:19;22.70;99.90
18682;DHT22;9471;51.168;4.154;2022-08-25T05:42:46;22.80;99.90
18682;DHT22;9471;51.168;4.154;2022-08-25T05:45:13;22.80;99.90
18682;DHT22;9471;51.168;4.154;2022-08-25T05:47:40;22.80;99.90
18682;DHT22;9471;51.168;4.154;2022-08-25T05:50:08;22.90;99.90
18682;DHT22;9471;51.168;4.154;2022-08-25T05:52:37;23.00;99.90
18682;DHT22;9471;51.168;4.154;2022-08-25T05:55:05;22.90;99.90
18682;DHT22;9471;51.168;4.154;2022-08-25T05:57:33;23.00;99.90
18682;DHT22;9471;51.168;4.154;2022-08-25T06:00:00;23.00;99.90
18682;DHT22;9471;51.168;4.154;2022-08-25T06:02:27;23.10;99.90
18682;DHT22;9471;51.168;4.154;2022-08-25T06:05:15;23.10;99.90
18682;DHT22;9471;51.168;4.154;2022-08-25T06:07:44;23.20;99.90
18682;DHT22;9471;51.168;4.154;2022-08-25T06:10:12;23.30;99.90
18682;DHT22;9471;51.168;4.154;2022-08-25T06:12:40;23.40;99.90
18682;DHT22;9471;51.168;4.154;2022-08-25T06:15:10;23.40;99.90
18682;DHT22;9471;51.168;4.154;2022-08-25T06:17:37;23.40;99.90
18682;DHT22;9471;51.168;4.154;2022-08-25T06:20:07;23.40;99.90
18682;DHT22;9471;51.168;4.154;2022-08-25T06:22:35;23.40;99.90
18682;DHT22;9471;51.168;4.154;2022-08-25T06:25:04;23.50;99.90
18682;DHT22;9471;51.168;4.154;2022-08-25T06:27:32;23.50;99.90
18682;DHT22;9471;51.168;4.154;2022-08-25T06:29:59;23.60;99.90
18682;DHT22;9471;51.168;4.154;2022-08-25T06:32:30;23.70;99.90
18682;DHT22;9471;51.168;4.154;2022-08-25T06:34:57;23.80;99.90
18682;DHT22;9471;51.168;4.154;2022-08-25T06:37:24;23.90;99.90
18682;DHT22;9471;51.168;4.154;2022-08-25T06:39:51;23.90;99.90
18682;DHT22;9471;51.168;4.154;2022-08-25T06:42:20;24.00;99.90
18682;DHT22;9471;51.168;4.154;2022-08-25T06:44:47;24.20;99.90
18682;DHT22;9471;51.168;4.154;2022-08-25T06:47:14;24.40;99.90
18682;DHT22;9471;51.168;4.154;2022-08-25T06:49:42;24.50;99.90
18682;DHT22;9471;51.168;4.154;2022-08-25T06:52:10;24.60;99.90
18682;DHT22;9471;51.168;4.154;2022-08-25T06:54:37;24.80;99.90
18682;DHT22;9471;51.168;4.154;2022-08-25T06:57:05;24.90;99.90
18682;DHT22;9471;51.168;4.154;2022-08-25T06:59:34;25.10;99.90
18682;DHT22;9471;51.168;4.154;2022-08-25T07:02:02;25.30;99.90
18682;DHT22;9471;51.168;4.154;2022-08-25T07:04:29;25.40;99.90
18682;DHT22;9471;51.168;4.154;2022-08-25T07:06:56;25.50;99.90
18682;DHT22;9471;51.168;4.154;2022-08-25T07:09:26;25.60;99.90
18682;DHT22;9471;51.168;4.154;2022-08-25T07:11:53;25.70;99.90
18682;DHT22;9471;51.168;4.154;2022-08-25T07:14:21;25.70;99.90
18682;DHT22;9471;51.168;4.154;2022-08-25T07:16:49;25.80;99.90
18682;DHT22;9471;51.168;4.154;2022-08-25T07:19:17;25.80;99.90
18682;DHT22;9471;51.168;4.154;2022-08-25T07:21:45;26.00;99.90
18682;DHT22;9471;51.168;4.154;2022-08-25T07:24:13;26.00;99.90
18682;DHT22;9471;51.168;4.154;2022-08-25T07:26:41;26.10;99.90
18682;DHT22;9471;51.168;4.154;2022-08-25T07:29:13;26.20;99.90
18682;DHT22;9471;51.168;4.154;2022-08-25T07:31:40;26.30;99.90
18682;DHT22;9471;51.168;4.154;2022-08-25T07:34:09;26.30;99.90
18682;DHT22;9471;51.168;4.154;2022-08-25T07:36:55;26.40;99.90
18682;DHT22;9471;51.168;4.154;2022-08-25T07:39:23;26.40;99.90
18682;DHT22;9471;51.168;4.154;2022-08-25T07:41:51;26.40;99.90
18682;DHT22;9471;51.168;4.154;2022-08-25T07:44:19;26.50;99.90
18682;DHT22;9471;51.168;4.154;2022-08-25T07:46:46;26.50;99.90
18682;DHT22;9471;51.168;4.154;2022-08-25T07:49:14;26.60;99.90
18682;DHT22;9471;51.168;4.154;2022-08-25T07:51:41;26.70;99.90
18682;DHT22;9471;51.168;4.154;2022-08-25T07:54:08;26.80;99.90
18682;DHT22;9471;51.168;4.154;2022-08-25T07:56:35;26.90;99.90
18682;DHT22;9471;51.168;4.154;2022-08-25T07:59:02;27.00;99.90
18682;DHT22;9471;51.168;4.154;2022-08-25T08:01:32;27.10;99.90
18682;DHT22;9471;51.168;4.154;2022-08-25T08:03:59;27.20;99.90
18682;DHT22;9471;51.168;4.154;2022-08-25T08:06:27;27.20;99.90
18682;DHT22;9471;51.168;4.154;2022-08-25T08:08:54;27.40;99.90
18682;DHT22;9471;51.168;4.154;2022-08-25T08:11:23;27.40;99.90
18682;DHT22;9471;51.168;4.154;2022-08-25T08:13:52;27.40;99.90
18682;DHT22;9471;51.168;4.154;2022-08-25T08:16:22;27.30;99.90
18682;DHT22;9471;51.168;4.154;2022-08-25T08:18:49;27.40;99.90
18682;DHT22;9471;51.168;4.154;2022-08-25T08:21:18;27.50;99.90
18682;DHT22;9471;51.168;4.154;2022-08-25T08:23:49;27.60;99.90
18682;DHT22;9471;51.168;4.154;2022-08-25T08:26:16;27.80;99.90
18682;DHT22;9471;51.168;4.154;2022-08-25T08:28:44;28.00;99.90
18682;DHT22;9471;51.168;4.154;2022-08-25T08:31:11;28.10;99.90
18682;DHT22;9471;51.168;4.154;2022-08-25T08:33:38;28.20;99.90
18682;DHT22;9471;51.168;4.154;2022-08-25T08:36:07;28.20;99.90
18682;DHT22;9471;51.168;4.154;2022-08-25T08:38:38;28.20;99.90
18682;DHT22;9471;51.168;4.154;2022-08-25T08:41:26;28.30;99.90
18682;DHT22;9471;51.168;4.154;2022-08-25T08:44:23;28.50;99.90
18682;DHT22;9471;51.168;4.154;2022-08-25T08:46:57;28.50;99.90
18682;DHT22;9471;51.168;4.154;2022-08-25T08:49:29;28.60;99.90
18682;DHT22;9471;51.168;4.154;2022-08-25T08:52:00;28.80;99.90
18682;DHT22;9471;51.168;4.154;2022-08-25T08:54:31;28.90;99.90
18682;DHT22;9471;51.168;4.154;2022-08-25T08:57:09;29.00;99.90
18682;DHT22;9471;51.168;4.154;2022-08-25T08:59:49;29.10;99.90
18682;DHT22;9471;51.168;4.154;2022-08-25T09:02:26;29.40;99.00
18682;DHT22;9471;51.168;4.154;2022-08-25T09:04:57;29.50;97.30
18682;DHT22;9471;51.168;4.154;2022-08-25T09:07:31;29.50;97.00
18682;DHT22;9471;51.168;4.154;2022-08-25T09:10:01;29.70;97.40
18682;DHT22;9471;51.168;4.154;2022-08-25T09:12:34;29.70;96.20
18682;DHT22;9471;51.168;4.154;2022-08-25T09:15:08;29.90;94.90
18682;DHT22;9471;51.168;4.154;2022-08-25T09:18:02;29.90;94.90
18682;DHT22;9471;51.168;4.154;2022-08-25T09:20:54;29.90;94.80
18682;DHT22;9471;51.168;4.154;2022-08-25T09:23:38;30.10;94.70
18682;DHT22;9471;51.168;4.154;2022-08-25T09:26:20;30.20;94.40
18682;DHT22;9471;51.168;4.154;2022-08-25T09:28:53;30.40;93.00
18682;DHT22;9471;51.168;4.154;2022-08-25T09:31:26;30.40;92.90
18682;DHT22;9471;51.168;4.154;2022-08-25T09:33:59;30.50;92.80
18682;DHT22;9471;51.168;4.154;2022-08-25T09:36:26;30.60;92.20
18682;DHT22;9471;51.168;4.154;2022-08-25T09:38:53;30.70;92.00
18682;DHT22;9471;51.168;4.154;2022-08-25T09:41:39;30.80;91.60
18682;DHT22;9471;51.168;4.154;2022-08-25T09:44:16;30.80;91.20
18682;DHT22;9471;51.168;4.154;2022-08-25T09:46:58;30.80;91.30
18682;DHT22;9471;51.168;4.154;2022-08-25T09:49:38;30.90;90.20
18682;DHT22;9471;51.168;4.154;2022-08-25T09:52:33;31.10;90.20
18682;DHT22;9471;51.168;4.154;2022-08-25T09:55:26;31.10;89.80
18682;DHT22;9471;51.168;4.154;2022-08-25T09:57:56;31.20;89.40
18682;DHT22;9471;51.168;4.154;2022-08-25T10:00:26;31.20;89.80
18682;DHT22;9471;51.168;4.154;2022-08-25T10:03:07;31.30;89.90
18682;DHT22;9471;51.168;4.154;2022-08-25T10:05:40;31.30;89.40
18682;DHT22;9471;51.168;4.154;2022-08-25T10:08:25;31.40;88.70
18682;DHT22;9471;51.168;4.154;2022-08-25T10:10:55;31.50;87.10
18682;DHT22;9471;51.168;4.154;2022-08-25T10:13:33;31.80;83.00
18682;DHT22;9471;51.168;4.154;2022-08-25T10:16:09;31.80;83.20
18682;DHT22;9471;51.168;4.154;2022-08-25T10:18:37;31.90;82.70
18682;DHT22;9471;51.168;4.154;2022-08-25T10:21:08;32.00;81.50
18682;DHT22;9471;51.168;4.154;2022-08-25T10:23:40;32.30;78.00
18682;DHT22;9471;51.168;4.154;2022-08-25T10:26:15;32.50;75.40
18682;DHT22;9471;51.168;4.154;2022-08-25T10:28:57;32.70;75.10
18682;DHT22;9471;51.168;4.154;2022-08-25T10:31:34;33.00;73.90
18682;DHT22;9471;51.168;4.154;2022-08-25T10:34:12;33.20;71.00
18682;DHT22;9471;51.168;4.154;2022-08-25T10:36:49;33.30;69.30
18682;DHT22;9471;51.168;4.154;2022-08-25T10:39:29;33.40;67.90
18682;DHT22;9471;51.168;4.154;2022-08-25T10:42:05;33.50;67.90
18682;DHT22;9471;51.168;4.154;2022-08-25T10:44:40;33.60;67.80
18682;DHT22;9471;51.168;4.154;2022-08-25T10:47:47;33.60;67.00
18682;DHT22;9471;51.168;4.154;2022-08-25T10:50:22;33.70;67.00
18682;DHT22;9471;51.168;4.154;2022-08-25T10:53:13;33.60;66.50
18682;DHT22;9471;51.168;4.154;2022-08-25T10:55:51;33.70;66.00
18682;DHT22;9471;51.168;4.154;2022-08-25T10:58:27;33.70;65.20
18682;DHT22;9471;51.168;4.154;2022-08-25T11:01:01;33.60;65.80
18682;DHT22;9471;51.168;4.154;2022-08-25T11:03:43;33.40;64.60
18682;DHT22;9471;51.168;4.154;2022-08-25T11:06:16;33.60;64.60
18682;DHT22;9471;51.168;4.154;2022-08-25T11:08:47;33.80;62.60
18682;DHT22;9471;51.168;4.154;2022-08-25T11:11:22;33.80;61.70
18682;DHT22;9471;51.168;4.154;2022-08-25T11:13:54;33.80;60.20
18682;DHT22;9471;51.168;4.154;2022-08-25T11:16:32;33.90;60.30
18682;DHT22;9471;51.168;4.154;2022-08-25T11:19:06;33.90;59.90
18682;DHT22;9471;51.168;4.154;2022-08-25T11:21:42;33.80;55.50
18682;DHT22;9471;51.168;4.154;2022-08-25T11:24:28;33.40;55.80
18682;DHT22;9471;51.168;4.154;2022-08-25T11:26:59;33.50;54.20
18682;DHT22;9471;51.168;4.154;2022-08-25T11:29:30;33.50;54.00
18682;DHT22;9471;51.168;4.154;2022-08-25T11:31:59;33.60;53.50
18682;DHT22;9471;51.168;4.154;2022-08-25T11:34:30;33.70;53.00
18682;DHT22;9471;51.168;4.154;2022-08-25T11:37:00;33.70;52.50
18682;DHT22;9471;51.168;4.154;2022-08-25T11:39:58;33.80;52.10
18682;DHT22;9471;51.168;4.154;2022-08-25T11:42:35;33.80;52.60
18682;DHT22;9471;51.168;4.154;2022-08-25T11:45:14;33.90;52.80
18682;DHT22;9471;51.168;4.154;2022-08-25T11:48:03;33.90;51.90
18682;DHT22;9471;51.168;4.154;2022-08-25T11:50:54;34.10;50.70
18682;DHT22;9471;51.168;4.154;2022-08-25T11:53:24;34.00;49.70
18682;DHT22;9471;51.168;4.154;2022-08-25T11:55:54;34.00;50.10
18682;DHT22;9471;51.168;4.154;2022-08-25T11:58:39;34.10;50.30
18682;DHT22;9471;51.168;4.154;2022-08-25T12:03:52;34.10;50.50
18682;DHT22;9471;51.168;4.154;2022-08-25T12:06:32;34.20;49.70
18682;DHT22;9471;51.168;4.154;2022-08-25T12:09:18;34.30;49.10
18682;DHT22;9471;51.168;4.154;2022-08-25T12:11:53;34.40;49.40
18682;DHT22;9471;51.168;4.154;2022-08-25T12:14:45;34.50;48.50
18682;DHT22;9471;51.168;4.154;2022-08-25T12:17:21;34.70;48.50
18682;DHT22;9471;51.168;4.154;2022-08-25T12:19:53;34.60;48.50
18682;DHT22;9471;51.168;4.154;2022-08-25T12:22:43;34.80;48.80
18682;DHT22;9471;51.168;4.154;2022-08-25T12:25:43;35.00;47.60
18682;DHT22;9471;51.168;4.154;2022-08-25T12:28:26;35.10;53.40
18682;DHT22;9471;51.168;4.154;2022-08-25T12:30:57;33.60;63.30
18682;DHT22;9471;51.168;4.154;2022-08-25T12:33:34;33.50;66.00
18682;DHT22;9471;51.168;4.154;2022-08-25T12:36:06;33.40;67.80
18682;DHT22;9471;51.168;4.154;2022-08-25T12:38:41;33.20;69.70
18682;DHT22;9471;51.168;4.154;2022-08-25T12:41:11;32.80;69.80
18682;DHT22;9471;51.168;4.154;2022-08-25T12:43:40;32.60;71.30
18682;DHT22;9471;51.168;4.154;2022-08-25T12:46:34;32.50;72.90
18682;DHT22;9471;51.168;4.154;2022-08-25T12:49:04;32.30;72.50
18682;DHT22;9471;51.168;4.154;2022-08-25T12:51:51;32.20;72.20
18682;DHT22;9471;51.168;4.154;2022-08-25T12:54:24;32.00;73.20
18682;DHT22;9471;51.168;4.154;2022-08-25T12:56:57;31.60;75.10
18682;DHT22;9471;51.168;4.154;2022-08-25T12:59:34;31.20;77.50
18682;DHT22;9471;51.168;4.154;2022-08-25T13:02:35;31.10;78.60
18682;DHT22;9471;51.168;4.154;2022-08-25T13:05:26;31.20;78.20
18682;DHT22;9471;51.168;4.154;2022-08-25T13:08:21;31.10;79.80
18682;DHT22;9471;51.168;4.154;2022-08-25T13:10:55;31.30;79.30
18682;DHT22;9471;51.168;4.154;2022-08-25T13:13:36;31.10;80.10
18682;DHT22;9471;51.168;4.154;2022-08-25T13:16:07;30.90;81.60
18682;DHT22;9471;51.168;4.154;2022-08-25T13:18:35;30.70;82.10
18682;DHT22;9471;51.168;4.154;2022-08-25T13:21:06;30.80;80.80
18682;DHT22;9471;51.168;4.154;2022-08-25T13:23:36;31.10;80.40
18682;DHT22;9471;51.168;4.154;2022-08-25T13:26:06;31.00;81.10
18682;DHT22;9471;51.168;4.154;2022-08-25T13:28:36;30.90;81.20
18682;DHT22;9471;51.168;4.154;2022-08-25T13:31:06;31.00;80.70
18682;DHT22;9471;51.168;4.154;2022-08-25T13:33:35;31.00;79.60
18682;DHT22;9471;51.168;4.154;2022-08-25T13:36:03;30.90;80.40
18682;DHT22;9471;51.168;4.154;2022-08-25T13:38:49;31.10;79.90
18682;DHT22;9471;51.168;4.154;2022-08-25T13:41:20;31.20;78.80
18682;DHT22;9471;51.168;4.154;2022-08-25T13:43:48;31.20;79.00
18682;DHT22;9471;51.168;4.154;2022-08-25T13:46:19;30.90;79.80
18682;DHT22;9471;51.168;4.154;2022-08-25T13:48:46;30.80;80.50
18682;DHT22;9471;51.168;4.154;2022-08-25T13:51:22;31.20;80.00
18682;DHT22;9471;51.168;4.154;2022-08-25T13:53:53;31.30;80.00
18682;DHT22;9471;51.168;4.154;2022-08-25T13:56:28;31.50;80.10
18682;DHT22;9471;51.168;4.154;2022-08-25T13:58:57;31.60;80.10
18682;DHT22;9471;51.168;4.154;2022-08-25T14:01:25;31.70;80.00
18682;DHT22;9471;51.168;4.154;2022-08-25T14:03:57;31.90;80.10
18682;DHT22;9471;51.168;4.154;2022-08-25T14:06:43;31.90;79.20
18682;DHT22;9471;51.168;4.154;2022-08-25T14:09:14;32.20;77.40
18682;DHT22;9471;51.168;4.154;2022-08-25T14:11:46;32.30;77.10
18682;DHT22;9471;51.168;4.154;2022-08-25T14:14:30;32.40;75.00
18682;DHT22;9471;51.168;4.154;2022-08-25T14:17:00;32.50;73.40
18682;DHT22;9471;51.168;4.154;2022-08-25T14:19:29;32.60;73.40
18682;DHT22;9471;51.168;4.154;2022-08-25T14:21:57;32.80;72.20
18682;DHT22;9471;51.168;4.154;2022-08-25T14:24:30;32.80;71.80
18682;DHT22;9471;51.168;4.154;2022-08-25T14:26:59;32.10;73.60
18682;DHT22;9471;51.168;4.154;2022-08-25T14:29:27;32.50;73.40
18682;DHT22;9471;51.168;4.154;2022-08-25T14:31:54;32.90;73.40
18682;DHT22;9471;51.168;4.154;2022-08-25T14:34:24;32.50;75.80
18682;DHT22;9471;51.168;4.154;2022-08-25T14:36:52;31.90;77.50
18682;DHT22;9471;51.168;4.154;2022-08-25T14:39:21;31.50;83.50
18682;DHT22;9471;51.168;4.154;2022-08-25T14:41:48;31.70;89.90
18682;DHT22;9471;51.168;4.154;2022-08-25T14:44:16;31.40;92.30
18682;DHT22;9471;51.168;4.154;2022-08-25T14:46:49;31.70;92.70
18682;DHT22;9471;51.168;4.154;2022-08-25T14:49:18;31.70;94.40
18682;DHT22;9471;51.168;4.154;2022-08-25T14:51:46;31.50;96.20
18682;DHT22;9471;51.168;4.154;2022-08-25T14:54:15;31.30;98.40
18682;DHT22;9471;51.168;4.154;2022-08-25T14:56:44;31.60;99.60
18682;DHT22;9471;51.168;4.154;2022-08-25T14:59:12;31.40;99.90
18682;DHT22;9471;51.168;4.154;2022-08-25T15:01:40;31.60;99.90
18682;DHT22;9471;51.168;4.154;2022-08-25T15:04:10;31.60;99.90
18682;DHT22;9471;51.168;4.154;2022-08-25T15:06:39;31.50;99.90
18682;DHT22;9471;51.168;4.154;2022-08-25T15:09:09;31.40;99.90
18682;DHT22;9471;51.168;4.154;2022-08-25T15:11:38;31.40;99.90
18682;DHT22;9471;51.168;4.154;2022-08-25T15:14:05;31.50;99.90
18682;DHT22;9471;51.168;4.154;2022-08-25T15:16:36;31.60;99.90
18682;DHT22;9471;51.168;4.154;2022-08-25T15:19:05;31.90;99.90
18682;DHT22;9471;51.168;4.154;2022-08-25T15:21:34;32.00;99.90
18682;DHT22;9471;51.168;4.154;2022-08-25T15:24:02;32.00;99.90
18682;DHT22;9471;51.168;4.154;2022-08-25T15:26:29;31.70;99.90
18682;DHT22;9471;51.168;4.154;2022-08-25T15:28:56;31.50;99.90
18682;DHT22;9471;51.168;4.154;2022-08-25T15:31:23;31.20;99.90
18682;DHT22;9471;51.168;4.154;2022-08-25T15:33:50;31.10;99.90
18682;DHT22;9471;51.168;4.154;2022-08-25T15:36:22;31.10;99.90
18682;DHT22;9471;51.168;4.154;2022-08-25T15:38:50;30.70;99.90
18682;DHT22;9471;51.168;4.154;2022-08-25T15:41:17;30.60;99.90
18682;DHT22;9471;51.168;4.154;2022-08-25T15:43:45;30.40;99.90
18682;DHT22;9471;51.168;4.154;2022-08-25T15:46:15;30.40;99.90
18682;DHT22;9471;51.168;4.154;2022-08-25T15:48:43;30.40;99.90
18682;DHT22;9471;51.168;4.154;2022-08-25T15:51:10;30.00;99.90
18682;DHT22;9471;51.168;4.154;2022-08-25T15:53:38;30.00;99.90
18682;DHT22;9471;51.168;4.154;2022-08-25T15:56:06;30.10;99.90
18682;DHT22;9471;51.168;4.154;2022-08-25T15:58:33;30.20;99.90
18682;DHT22;9471;51.168;4.154;2022-08-25T16:01:01;30.10;99.90
18682;DHT22;9471;51.168;4.154;2022-08-25T16:03:28;29.80;99.90
18682;DHT22;9471;51.168;4.154;2022-08-25T16:05:56;29.60;99.90
18682;DHT22;9471;51.168;4.154;2022-08-25T16:08:23;29.30;99.90
18682;DHT22;9471;51.168;4.154;2022-08-25T16:10:51;29.60;99.90
18682;DHT22;9471;51.168;4.154;2022-08-25T16:13:21;29.60;99.90